sensor_id;sensor_type;location;lat;lon;timestamp;P1;durP1;ratioP1;P2;durP2;ratioP2
11735;SDS011;5924;51.398;7.088;2022-07-26T00:00:49;3.27;;;1.30;;
11735;SDS011;5924;51.398;7.088;2022-07-26T00:03:15;2.90;;;1.37;;
11735;SDS011;5924;51.398;7.088;2022-07-26T00:05:41;2.57;;;1.43;;
11735;SDS011;5924;51.398;7.088;2022-07-26T00:08:07;3.03;;;1.30;;
11735;SDS011;5924;51.398;7.088;2022-07-26T00:10:37;1.93;;;1.70;;
11735;SDS011;5924;51.398;7.088;2022-07-26T00:13:07;5.70;;;1.57;;
11735;SDS011;5924;51.398;7.088;2022-07-26T00:15:34;2.17;;;1.43;;
11735;SDS011;5924;51.398;7.088;2022-07-26T00:18:01;3.40;;;1.57;;
11735;SDS011;5924;51.398;7.088;2022-07-26T00:20:27;2.00;;;1.50;;
11735;SDS011;5924;51.398;7.088;2022-07-26T00:22:53;1.60;;;1.50;;
11735;SDS011;5924;51.398;7.088;2022-07-26T00:25:18;3.17;;;1.77;;
11735;SDS011;5924;51.398;7.088;2022-07-26T00:27:44;1.43;;;1.43;;
11735;SDS011;5924;51.398;7.088;2022-07-26T00:30:10;1.80;;;1.70;;
11735;SDS011;5924;51.398;7.088;2022-07-26T00:32:36;1.57;;;1.47;;
11735;SDS011;5924;51.398;7.088;2022-07-26T00:35:05;1.80;;;1.70;;
11735;SDS011;5924;51.398;7.088;2022-07-26T00:37:31;1.93;;;1.83;;
11735;SDS011;5924;51.398;7.088;2022-07-26T00:39:57;4.30;;;1.40;;
11735;SDS011;5924;51.398;7.088;2022-07-26T00:42:22;2.33;;;2.03;;
11735;SDS011;5924;51.398;7.088;2022-07-26T00:44:48;2.03;;;1.57;;
11735;SDS011;5924;51.398;7.088;2022-07-26T00:47:14;1.73;;;1.60;;
11735;SDS011;5924;51.398;7.088;2022-07-26T00:49:40;2.00;;;1.80;;
11735;SDS011;5924;51.398;7.088;2022-07-26T00:52:06;1.87;;;1.63;;
11735;SDS011;5924;51.398;7.088;2022-07-26T00:54:33;3.70;;;1.60;;
11735;SDS011;5924;51.398;7.088;2022-07-26T00:57:00;2.70;;;1.70;;
11735;SDS011;5924;51.398;7.088;2022-07-26T00:59:25;1.57;;;1.50;;
11735;SDS011;5924;51.398;7.088;2022-07-26T01:01:51;2.10;;;1.90;;
11735;SDS011;5924;51.398;7.088;2022-07-26T01:04:17;10.40;;;1.50;;
11735;SDS011;5924;51.398;7.088;2022-07-26T01:06:43;1.90;;;1.80;;
11735;SDS011;5924;51.398;7.088;2022-07-26T01:09:09;1.80;;;1.70;;
11735;SDS011;5924;51.398;7.088;2022-07-26T01:11:35;5.07;;;1.90;;
11735;SDS011;5924;51.398;7.088;2022-07-26T01:14:01;1.37;;;1.33;;
11735;SDS011;5924;51.398;7.088;2022-07-26T01:16:27;2.10;;;1.70;;
11735;SDS011;5924;51.398;7.088;2022-07-26T01:18:53;4.23;;;2.10;;
11735;SDS011;5924;51.398;7.088;2022-07-26T01:21:18;2.10;;;1.77;;
11735;SDS011;5924;51.398;7.088;2022-07-26T01:23:46;2.90;;;2.17;;
11735;SDS011;5924;51.398;7.088;2022-07-26T01:26:11;2.50;;;1.70;;
11735;SDS011;5924;51.398;7.088;2022-07-26T01:28:37;2.40;;;2.30;;
11735;SDS011;5924;51.398;7.088;2022-07-26T01:31:05;5.50;;;1.90;;
11735;SDS011;5924;51.398;7.088;2022-07-26T01:33:32;1.70;;;1.60;;
11735;SDS011;5924;51.398;7.088;2022-07-26T01:35:58;1.60;;;1.60;;
11735;SDS011;5924;51.398;7.088;2022-07-26T01:38:25;1.60;;;1.50;;
11735;SDS011;5924;51.398;7.088;2022-07-26T01:40:51;3.53;;;1.70;;
11735;SDS011;5924;51.398;7.088;2022-07-26T01:43:17;2.80;;;1.90;;
11735;SDS011;5924;51.398;7.088;2022-07-26T01:45:43;2.30;;;2.10;;
11735;SDS011;5924;51.398;7.088;2022-07-26T01:48:09;2.70;;;2.50;;
11735;SDS011;5924;51.398;7.088;2022-07-26T01:50:35;2.60;;;1.80;;
11735;SDS011;5924;51.398;7.088;2022-07-26T01:53:01;2.60;;;2.20;;
11735;SDS011;5924;51.398;7.088;2022-07-26T01:55:27;6.13;;;2.30;;
11735;SDS011;5924;51.398;7.088;2022-07-26T01:57:53;2.50;;;2.07;;
11735;SDS011;5924;51.398;7.088;2022-07-26T02:00:18;5.33;;;2.00;;
11735;SDS011;5924;51.398;7.088;2022-07-26T02:02:44;5.80;;;1.87;;
11735;SDS011;5924;51.398;7.088;2022-07-26T02:05:10;5.23;;;1.67;;
11735;SDS011;5924;51.398;7.088;2022-07-26T02:07:38;1.43;;;1.43;;
11735;SDS011;5924;51.398;7.088;2022-07-26T02:10:05;7.87;;;1.80;;
11735;SDS011;5924;51.398;7.088;2022-07-26T02:12:31;6.33;;;2.10;;
11735;SDS011;5924;51.398;7.088;2022-07-26T02:14:57;1.70;;;1.60;;
11735;SDS011;5924;51.398;7.088;2022-07-26T02:17:23;10.03;;;1.83;;
11735;SDS011;5924;51.398;7.088;2022-07-26T02:19:49;5.57;;;1.50;;
11735;SDS011;5924;51.398;7.088;2022-07-26T02:22:16;1.97;;;1.50;;
11735;SDS011;5924;51.398;7.088;2022-07-26T02:24:42;3.90;;;2.00;;
11735;SDS011;5924;51.398;7.088;2022-07-26T02:27:08;6.27;;;2.10;;
11735;SDS011;5924;51.398;7.088;2022-07-26T02:29:34;3.67;;;1.60;;
11735;SDS011;5924;51.398;7.088;2022-07-26T02:31:59;3.53;;;1.80;;
11735;SDS011;5924;51.398;7.088;2022-07-26T02:34:25;2.23;;;1.30;;
11735;SDS011;5924;51.398;7.088;2022-07-26T02:36:51;4.57;;;1.50;;
11735;SDS011;5924;51.398;7.088;2022-07-26T02:39:17;1.47;;;1.37;;
11735;SDS011;5924;51.398;7.088;2022-07-26T02:41:42;3.27;;;1.60;;
11735;SDS011;5924;51.398;7.088;2022-07-26T02:44:08;5.13;;;2.13;;
11735;SDS011;5924;51.398;7.088;2022-07-26T02:46:34;3.23;;;1.30;;
11735;SDS011;5924;51.398;7.088;2022-07-26T02:48:59;2.27;;;1.60;;
11735;SDS011;5924;51.398;7.088;2022-07-26T02:51:25;1.70;;;1.60;;
11735;SDS011;5924;51.398;7.088;2022-07-26T02:53:52;3.60;;;1.40;;
11735;SDS011;5924;51.398;7.088;2022-07-26T02:56:20;3.53;;;1.70;;
11735;SDS011;5924;51.398;7.088;2022-07-26T02:58:47;2.00;;;1.63;;
11735;SDS011;5924;51.398;7.088;2022-07-26T03:01:13;8.30;;;2.10;;
11735;SDS011;5924;51.398;7.088;2022-07-26T03:03:39;2.27;;;1.70;;
11735;SDS011;5924;51.398;7.088;2022-07-26T03:06:04;6.87;;;2.03;;
11735;SDS011;5924;51.398;7.088;2022-07-26T03:08:30;2.67;;;1.60;;
11735;SDS011;5924;51.398;7.088;2022-07-26T03:10:55;5.90;;;2.57;;
11735;SDS011;5924;51.398;7.088;2022-07-26T03:13:21;6.30;;;2.07;;
11735;SDS011;5924;51.398;7.088;2022-07-26T03:15:47;6.13;;;2.40;;
11735;SDS011;5924;51.398;7.088;2022-07-26T03:18:12;9.33;;;2.47;;
11735;SDS011;5924;51.398;7.088;2022-07-26T03:20:38;7.10;;;2.30;;
11735;SDS011;5924;51.398;7.088;2022-07-26T03:23:04;7.20;;;3.10;;
11735;SDS011;5924;51.398;7.088;2022-07-26T03:25:29;4.17;;;1.93;;
11735;SDS011;5924;51.398;7.088;2022-07-26T03:27:55;8.53;;;2.73;;
11735;SDS011;5924;51.398;7.088;2022-07-26T03:30:21;8.57;;;2.77;;
11735;SDS011;5924;51.398;7.088;2022-07-26T03:32:47;9.93;;;2.87;;
11735;SDS011;5924;51.398;7.088;2022-07-26T03:35:13;2.33;;;2.13;;
11735;SDS011;5924;51.398;7.088;2022-07-26T03:37:39;4.77;;;2.30;;
11735;SDS011;5924;51.398;7.088;2022-07-26T03:40:05;5.90;;;2.20;;
11735;SDS011;5924;51.398;7.088;2022-07-26T03:42:32;5.03;;;2.43;;
11735;SDS011;5924;51.398;7.088;2022-07-26T03:44:59;8.37;;;1.97;;
11735;SDS011;5924;51.398;7.088;2022-07-26T03:47:24;5.67;;;2.03;;
11735;SDS011;5924;51.398;7.088;2022-07-26T03:49:50;6.03;;;2.20;;
11735;SDS011;5924;51.398;7.088;2022-07-26T03:52:16;4.13;;;2.10;;
11735;SDS011;5924;51.398;7.088;2022-07-26T03:54:41;3.10;;;2.63;;
11735;SDS011;5924;51.398;7.088;2022-07-26T03:57:07;2.13;;;2.00;;
11735;SDS011;5924;51.398;7.088;2022-07-26T03:59:33;4.00;;;2.17;;
11735;SDS011;5924;51.398;7.088;2022-07-26T04:01:59;2.47;;;2.03;;
11735;SDS011;5924;51.398;7.088;2022-07-26T04:04:24;3.60;;;2.20;;
11735;SDS011;5924;51.398;7.088;2022-07-26T04:06:50;3.43;;;1.90;;
11735;SDS011;5924;51.398;7.088;2022-07-26T04:09:16;3.13;;;1.83;;
11735;SDS011;5924;51.398;7.088;2022-07-26T04:11:42;3.40;;;2.07;;
11735;SDS011;5924;51.398;7.088;2022-07-26T04:14:08;3.17;;;2.00;;
11735;SDS011;5924;51.398;7.088;2022-07-26T04:16:34;2.43;;;2.13;;
11735;SDS011;5924;51.398;7.088;2022-07-26T04:19:00;2.70;;;1.90;;
11735;SDS011;5924;51.398;7.088;2022-07-26T04:21:26;4.40;;;2.50;;
11735;SDS011;5924;51.398;7.088;2022-07-26T04:23:51;3.60;;;2.30;;
11735;SDS011;5924;51.398;7.088;2022-07-26T04:26:18;2.87;;;1.90;;
11735;SDS011;5924;51.398;7.088;2022-07-26T04:28:45;4.20;;;2.20;;
11735;SDS011;5924;51.398;7.088;2022-07-26T04:31:11;1.80;;;1.80;;
11735;SDS011;5924;51.398;7.088;2022-07-26T04:33:37;3.83;;;2.03;;
11735;SDS011;5924;51.398;7.088;2022-07-26T04:36:02;3.40;;;1.80;;
11735;SDS011;5924;51.398;7.088;2022-07-26T04:38:29;2.37;;;1.97;;
11735;SDS011;5924;51.398;7.088;2022-07-26T04:40:55;4.00;;;2.17;;
11735;SDS011;5924;51.398;7.088;2022-07-26T04:43:22;17.70;;;3.30;;
11735;SDS011;5924;51.398;7.088;2022-07-26T04:45:47;9.60;;;2.60;;
11735;SDS011;5924;51.398;7.088;2022-07-26T04:48:14;5.13;;;2.57;;
11735;SDS011;5924;51.398;7.088;2022-07-26T04:50:40;3.50;;;1.80;;
11735;SDS011;5924;51.398;7.088;2022-07-26T04:53:07;5.33;;;2.67;;
11735;SDS011;5924;51.398;7.088;2022-07-26T04:55:35;4.27;;;2.10;;
11735;SDS011;5924;51.398;7.088;2022-07-26T04:58:01;4.87;;;2.30;;
11735;SDS011;5924;51.398;7.088;2022-07-26T05:00:27;5.90;;;3.17;;
11735;SDS011;5924;51.398;7.088;2022-07-26T05:02:53;3.73;;;2.37;;
11735;SDS011;5924;51.398;7.088;2022-07-26T05:05:21;6.57;;;3.23;;
11735;SDS011;5924;51.398;7.088;2022-07-26T05:07:48;5.80;;;2.53;;
11735;SDS011;5924;51.398;7.088;2022-07-26T05:10:19;7.87;;;2.10;;
11735;SDS011;5924;51.398;7.088;2022-07-26T05:12:45;5.47;;;2.47;;
11735;SDS011;5924;51.398;7.088;2022-07-26T05:15:12;2.73;;;2.53;;
11735;SDS011;5924;51.398;7.088;2022-07-26T05:17:39;6.27;;;2.90;;
11735;SDS011;5924;51.398;7.088;2022-07-26T05:20:06;5.00;;;2.30;;
11735;SDS011;5924;51.398;7.088;2022-07-26T05:22:33;6.63;;;2.57;;
11735;SDS011;5924;51.398;7.088;2022-07-26T05:24:59;8.23;;;3.23;;
11735;SDS011;5924;51.398;7.088;2022-07-26T05:27:25;6.37;;;2.90;;
11735;SDS011;5924;51.398;7.088;2022-07-26T05:29:50;5.57;;;2.90;;
11735;SDS011;5924;51.398;7.088;2022-07-26T05:32:16;4.60;;;2.43;;
11735;SDS011;5924;51.398;7.088;2022-07-26T05:34:42;2.37;;;2.27;;
11735;SDS011;5924;51.398;7.088;2022-07-26T05:37:08;6.83;;;3.07;;
11735;SDS011;5924;51.398;7.088;2022-07-26T05:39:34;9.20;;;3.20;;
11735;SDS011;5924;51.398;7.088;2022-07-26T05:41:59;8.57;;;3.00;;
11735;SDS011;5924;51.398;7.088;2022-07-26T05:44:25;3.63;;;2.90;;
11735;SDS011;5924;51.398;7.088;2022-07-26T05:46:51;6.87;;;2.87;;
11735;SDS011;5924;51.398;7.088;2022-07-26T05:49:16;4.97;;;2.87;;
11735;SDS011;5924;51.398;7.088;2022-07-26T05:51:42;5.27;;;3.50;;
11735;SDS011;5924;51.398;7.088;2022-07-26T05:54:07;5.67;;;2.77;;
11735;SDS011;5924;51.398;7.088;2022-07-26T05:56:33;4.93;;;2.97;;
11735;SDS011;5924;51.398;7.088;2022-07-26T05:58:59;10.77;;;2.83;;
11735;SDS011;5924;51.398;7.088;2022-07-26T06:01:25;6.27;;;2.73;;
11735;SDS011;5924;51.398;7.088;2022-07-26T06:03:53;4.53;;;2.50;;
11735;SDS011;5924;51.398;7.088;2022-07-26T06:06:19;7.50;;;3.07;;
11735;SDS011;5924;51.398;7.088;2022-07-26T06:08:44;10.03;;;3.07;;
11735;SDS011;5924;51.398;7.088;2022-07-26T06:11:10;5.27;;;2.53;;
11735;SDS011;5924;51.398;7.088;2022-07-26T06:13:35;7.17;;;3.10;;
11735;SDS011;5924;51.398;7.088;2022-07-26T06:16:01;7.53;;;2.97;;
11735;SDS011;5924;51.398;7.088;2022-07-26T06:18:27;8.47;;;3.10;;
11735;SDS011;5924;51.398;7.088;2022-07-26T06:20:52;4.00;;;2.90;;
11735;SDS011;5924;51.398;7.088;2022-07-26T06:23:19;3.23;;;2.93;;
11735;SDS011;5924;51.398;7.088;2022-07-26T06:25:45;5.30;;;3.20;;
11735;SDS011;5924;51.398;7.088;2022-07-26T06:28:11;5.57;;;3.43;;
11735;SDS011;5924;51.398;7.088;2022-07-26T06:30:37;11.23;;;3.50;;
11735;SDS011;5924;51.398;7.088;2022-07-26T06:33:03;8.63;;;3.80;;
11735;SDS011;5924;51.398;7.088;2022-07-26T06:35:29;5.23;;;3.50;;
11735;SDS011;5924;51.398;7.088;2022-07-26T06:37:56;9.30;;;4.03;;
11735;SDS011;5924;51.398;7.088;2022-07-26T06:40:22;11.13;;;3.93;;
11735;SDS011;5924;51.398;7.088;2022-07-26T06:42:48;11.73;;;3.90;;
11735;SDS011;5924;51.398;7.088;2022-07-26T06:45:14;5.13;;;4.03;;
11735;SDS011;5924;51.398;7.088;2022-07-26T06:47:40;10.17;;;4.33;;
11735;SDS011;5924;51.398;7.088;2022-07-26T06:50:06;8.40;;;4.30;;
11735;SDS011;5924;51.398;7.088;2022-07-26T06:52:32;6.47;;;4.17;;
11735;SDS011;5924;51.398;7.088;2022-07-26T06:54:58;8.00;;;5.03;;
11735;SDS011;5924;51.398;7.088;2022-07-26T06:57:25;8.30;;;4.30;;
11735;SDS011;5924;51.398;7.088;2022-07-26T06:59:51;19.40;;;4.90;;
11735;SDS011;5924;51.398;7.088;2022-07-26T07:02:17;12.03;;;4.57;;
11735;SDS011;5924;51.398;7.088;2022-07-26T07:04:43;16.73;;;5.40;;
11735;SDS011;5924;51.398;7.088;2022-07-26T07:07:08;9.83;;;4.20;;
11735;SDS011;5924;51.398;7.088;2022-07-26T07:09:34;14.57;;;4.53;;
11735;SDS011;5924;51.398;7.088;2022-07-26T07:12:01;13.40;;;4.87;;
11735;SDS011;5924;51.398;7.088;2022-07-26T07:14:28;8.73;;;4.20;;
11735;SDS011;5924;51.398;7.088;2022-07-26T07:16:54;11.40;;;5.67;;
11735;SDS011;5924;51.398;7.088;2022-07-26T07:19:20;13.67;;;5.70;;
11735;SDS011;5924;51.398;7.088;2022-07-26T07:21:46;17.33;;;6.10;;
11735;SDS011;5924;51.398;7.088;2022-07-26T07:24:12;26.83;;;7.63;;
11735;SDS011;5924;51.398;7.088;2022-07-26T07:26:37;12.03;;;6.33;;
11735;SDS011;5924;51.398;7.088;2022-07-26T07:29:03;7.70;;;6.83;;
11735;SDS011;5924;51.398;7.088;2022-07-26T07:31:29;19.20;;;6.10;;
11735;SDS011;5924;51.398;7.088;2022-07-26T07:33:55;6.70;;;5.50;;
11735;SDS011;5924;51.398;7.088;2022-07-26T07:36:21;11.67;;;6.20;;
11735;SDS011;5924;51.398;7.088;2022-07-26T07:38:47;6.60;;;5.70;;
11735;SDS011;5924;51.398;7.088;2022-07-26T07:41:13;11.17;;;8.07;;
11735;SDS011;5924;51.398;7.088;2022-07-26T07:43:38;13.60;;;9.03;;
11735;SDS011;5924;51.398;7.088;2022-07-26T07:46:04;16.90;;;10.63;;
11735;SDS011;5924;51.398;7.088;2022-07-26T07:48:30;15.83;;;11.03;;
11735;SDS011;5924;51.398;7.088;2022-07-26T07:50:56;23.67;;;11.77;;
11735;SDS011;5924;51.398;7.088;2022-07-26T07:53:21;15.50;;;11.00;;
11735;SDS011;5924;51.398;7.088;2022-07-26T07:55:47;19.80;;;12.33;;
11735;SDS011;5924;51.398;7.088;2022-07-26T07:58:14;14.00;;;10.43;;
11735;SDS011;5924;51.398;7.088;2022-07-26T08:00:40;15.10;;;10.80;;
11735;SDS011;5924;51.398;7.088;2022-07-26T08:03:06;17.70;;;10.37;;
11735;SDS011;5924;51.398;7.088;2022-07-26T08:05:31;17.10;;;10.30;;
11735;SDS011;5924;51.398;7.088;2022-07-26T08:07:57;34.23;;;9.30;;
11735;SDS011;5924;51.398;7.088;2022-07-26T08:10:23;13.63;;;7.90;;
11735;SDS011;5924;51.398;7.088;2022-07-26T08:12:48;16.10;;;8.70;;
11735;SDS011;5924;51.398;7.088;2022-07-26T08:15:14;15.00;;;8.40;;
11735;SDS011;5924;51.398;7.088;2022-07-26T08:17:40;17.43;;;8.97;;
11735;SDS011;5924;51.398;7.088;2022-07-26T08:20:05;13.10;;;9.47;;
11735;SDS011;5924;51.398;7.088;2022-07-26T08:22:31;16.90;;;8.93;;
11735;SDS011;5924;51.398;7.088;2022-07-26T08:24:57;9.77;;;7.10;;
11735;SDS011;5924;51.398;7.088;2022-07-26T08:27:24;13.60;;;7.47;;
11735;SDS011;5924;51.398;7.088;2022-07-26T08:29:50;21.83;;;10.40;;
11735;SDS011;5924;51.398;7.088;2022-07-26T08:32:18;11.13;;;9.10;;
11735;SDS011;5924;51.398;7.088;2022-07-26T08:34:44;13.33;;;7.90;;
11735;SDS011;5924;51.398;7.088;2022-07-26T08:37:09;7.83;;;6.20;;
11735;SDS011;5924;51.398;7.088;2022-07-26T08:39:35;25.83;;;8.80;;
11735;SDS011;5924;51.398;7.088;2022-07-26T08:42:01;13.43;;;7.30;;
11735;SDS011;5924;51.398;7.088;2022-07-26T08:44:28;9.77;;;5.23;;
11735;SDS011;5924;51.398;7.088;2022-07-26T08:46:54;7.60;;;4.80;;
11735;SDS011;5924;51.398;7.088;2022-07-26T08:49:20;6.87;;;5.83;;
11735;SDS011;5924;51.398;7.088;2022-07-26T08:51:45;6.47;;;5.50;;
11735;SDS011;5924;51.398;7.088;2022-07-26T08:54:12;7.90;;;6.27;;
11735;SDS011;5924;51.398;7.088;2022-07-26T08:56:40;9.73;;;6.10;;
11735;SDS011;5924;51.398;7.088;2022-07-26T08:59:13;6.63;;;6.03;;
11735;SDS011;5924;51.398;7.088;2022-07-26T09:01:56;8.03;;;4.77;;
11735;SDS011;5924;51.398;7.088;2022-07-26T09:04:28;6.27;;;4.47;;
11735;SDS011;5924;51.398;7.088;2022-07-26T09:09:22;7.40;;;4.40;;
11735;SDS011;5924;51.398;7.088;2022-07-26T09:11:48;7.20;;;4.10;;
11735;SDS011;5924;51.398;7.088;2022-07-26T09:14:14;9.47;;;4.07;;
11735;SDS011;5924;51.398;7.088;2022-07-26T09:16:39;8.50;;;3.80;;
11735;SDS011;5924;51.398;7.088;2022-07-26T09:19:12;9.10;;;4.20;;
11735;SDS011;5924;51.398;7.088;2022-07-26T09:21:39;5.30;;;3.27;;
11735;SDS011;5924;51.398;7.088;2022-07-26T09:24:05;7.40;;;3.90;;
11735;SDS011;5924;51.398;7.088;2022-07-26T09:26:31;6.77;;;3.77;;
11735;SDS011;5924;51.398;7.088;2022-07-26T09:29:00;7.20;;;3.60;;
11735;SDS011;5924;51.398;7.088;2022-07-26T09:31:31;5.60;;;3.50;;
11735;SDS011;5924;51.398;7.088;2022-07-26T09:33:57;5.17;;;3.67;;
11735;SDS011;5924;51.398;7.088;2022-07-26T09:36:24;12.67;;;4.00;;
11735;SDS011;5924;51.398;7.088;2022-07-26T09:38:51;4.80;;;4.30;;
11735;SDS011;5924;51.398;7.088;2022-07-26T09:43:53;4.30;;;4.10;;
11735;SDS011;5924;51.398;7.088;2022-07-26T09:46:21;5.83;;;3.70;;
11735;SDS011;5924;51.398;7.088;2022-07-26T09:48:50;5.70;;;4.30;;
11735;SDS011;5924;51.398;7.088;2022-07-26T09:51:19;9.83;;;4.50;;
11735;SDS011;5924;51.398;7.088;2022-07-26T09:54:00;4.50;;;4.17;;
11735;SDS011;5924;51.398;7.088;2022-07-26T09:56:39;5.07;;;4.60;;
11735;SDS011;5924;51.398;7.088;2022-07-26T09:59:11;7.10;;;5.30;;
11735;SDS011;5924;51.398;7.088;2022-07-26T10:01:38;5.77;;;5.27;;
11735;SDS011;5924;51.398;7.088;2022-07-26T10:04:04;5.80;;;4.67;;
11735;SDS011;5924;51.398;7.088;2022-07-26T10:06:30;11.23;;;5.20;;
11735;SDS011;5924;51.398;7.088;2022-07-26T10:08:56;7.63;;;4.80;;
11735;SDS011;5924;51.398;7.088;2022-07-26T10:11:23;5.30;;;4.40;;
11735;SDS011;5924;51.398;7.088;2022-07-26T10:13:50;6.47;;;5.23;;
11735;SDS011;5924;51.398;7.088;2022-07-26T10:16:29;6.80;;;4.20;;
11735;SDS011;5924;51.398;7.088;2022-07-26T10:18:55;12.70;;;3.63;;
11735;SDS011;5924;51.398;7.088;2022-07-26T10:21:26;9.00;;;3.10;;
11735;SDS011;5924;51.398;7.088;2022-07-26T10:26:43;4.30;;;2.70;;
11735;SDS011;5924;51.398;7.088;2022-07-26T10:37:00;6.83;;;3.17;;
11735;SDS011;5924;51.398;7.088;2022-07-26T10:39:30;4.50;;;3.00;;
11735;SDS011;5924;51.398;7.088;2022-07-26T10:42:06;5.37;;;2.90;;
11735;SDS011;5924;51.398;7.088;2022-07-26T10:44:34;4.23;;;3.00;;
11735;SDS011;5924;51.398;7.088;2022-07-26T10:49:29;3.73;;;3.40;;
11735;SDS011;5924;51.398;7.088;2022-07-26T10:57:28;5.20;;;4.80;;
11735;SDS011;5924;51.398;7.088;2022-07-26T10:59:55;6.50;;;4.73;;
11735;SDS011;5924;51.398;7.088;2022-07-26T11:02:29;5.07;;;4.70;;
11735;SDS011;5924;51.398;7.088;2022-07-26T11:07:46;6.70;;;4.03;;
11735;SDS011;5924;51.398;7.088;2022-07-26T11:10:12;4.37;;;3.97;;
11735;SDS011;5924;51.398;7.088;2022-07-26T11:12:37;7.83;;;4.23;;
11735;SDS011;5924;51.398;7.088;2022-07-26T11:15:12;4.47;;;4.07;;
11735;SDS011;5924;51.398;7.088;2022-07-26T11:17:39;4.20;;;3.33;;
11735;SDS011;5924;51.398;7.088;2022-07-26T11:20:05;3.13;;;2.70;;
11735;SDS011;5924;51.398;7.088;2022-07-26T11:22:32;2.93;;;2.93;;
11735;SDS011;5924;51.398;7.088;2022-07-26T11:24:58;3.57;;;3.00;;
11735;SDS011;5924;51.398;7.088;2022-07-26T11:27:24;5.27;;;2.70;;
11735;SDS011;5924;51.398;7.088;2022-07-26T11:29:49;3.17;;;2.90;;
11735;SDS011;5924;51.398;7.088;2022-07-26T11:32:16;3.10;;;2.50;;
11735;SDS011;5924;51.398;7.088;2022-07-26T11:34:46;1.70;;;1.70;;
11735;SDS011;5924;51.398;7.088;2022-07-26T11:37:21;1.50;;;1.50;;
11735;SDS011;5924;51.398;7.088;2022-07-26T11:39:46;1.77;;;1.67;;
11735;SDS011;5924;51.398;7.088;2022-07-26T11:42:12;1.80;;;1.70;;
11735;SDS011;5924;51.398;7.088;2022-07-26T11:44:43;1.33;;;1.33;;
11735;SDS011;5924;51.398;7.088;2022-07-26T11:47:10;1.43;;;1.37;;
11735;SDS011;5924;51.398;7.088;2022-07-26T11:49:37;2.60;;;1.50;;
11735;SDS011;5924;51.398;7.088;2022-07-26T11:52:03;1.53;;;1.43;;
11735;SDS011;5924;51.398;7.088;2022-07-26T11:54:30;1.20;;;1.10;;
11735;SDS011;5924;51.398;7.088;2022-07-26T11:57:03;1.20;;;1.10;;
11735;SDS011;5924;51.398;7.088;2022-07-26T11:59:33;1.17;;;1.17;;
11735;SDS011;5924;51.398;7.088;2022-07-26T12:02:01;1.10;;;1.10;;
11735;SDS011;5924;51.398;7.088;2022-07-26T12:04:36;0.73;;;0.73;;
11735;SDS011;5924;51.398;7.088;2022-07-26T12:07:24;1.70;;;0.90;;
11735;SDS011;5924;51.398;7.088;2022-07-26T12:09:50;2.97;;;0.83;;
11735;SDS011;5924;51.398;7.088;2022-07-26T12:12:22;0.87;;;0.80;;
11735;SDS011;5924;51.398;7.088;2022-07-26T12:14:59;1.00;;;1.00;;
11735;SDS011;5924;51.398;7.088;2022-07-26T12:17:30;0.80;;;0.80;;
11735;SDS011;5924;51.398;7.088;2022-07-26T12:20:09;0.50;;;0.50;;
11735;SDS011;5924;51.398;7.088;2022-07-26T12:22:36;0.50;;;0.50;;
11735;SDS011;5924;51.398;7.088;2022-07-26T12:25:02;0.40;;;0.40;;
11735;SDS011;5924;51.398;7.088;2022-07-26T12:27:29;0.60;;;0.60;;
11735;SDS011;5924;51.398;7.088;2022-07-26T12:32:34;0.50;;;0.50;;
11735;SDS011;5924;51.398;7.088;2022-07-26T12:35:08;0.57;;;0.57;;
11735;SDS011;5924;51.398;7.088;2022-07-26T12:40:13;1.13;;;0.70;;
11735;SDS011;5924;51.398;7.088;2022-07-26T12:42:41;0.50;;;0.50;;
11735;SDS011;5924;51.398;7.088;2022-07-26T12:45:10;3.03;;;0.50;;
11735;SDS011;5924;51.398;7.088;2022-07-26T12:47:38;0.50;;;0.40;;
11735;SDS011;5924;51.398;7.088;2022-07-26T12:50:06;13.53;;;1.03;;
11735;SDS011;5924;51.398;7.088;2022-07-26T12:52:33;2.00;;;0.40;;
11735;SDS011;5924;51.398;7.088;2022-07-26T12:54:59;0.40;;;0.40;;
11735;SDS011;5924;51.398;7.088;2022-07-26T12:57:26;0.40;;;0.40;;
11735;SDS011;5924;51.398;7.088;2022-07-26T12:59:52;2.87;;;0.50;;
11735;SDS011;5924;51.398;7.088;2022-07-26T13:02:19;3.57;;;0.60;;
11735;SDS011;5924;51.398;7.088;2022-07-26T13:04:45;1.63;;;0.50;;
11735;SDS011;5924;51.398;7.088;2022-07-26T13:07:13;0.40;;;0.40;;
11735;SDS011;5924;51.398;7.088;2022-07-26T13:09:39;0.50;;;0.47;;
11735;SDS011;5924;51.398;7.088;2022-07-26T13:12:06;0.63;;;0.40;;
11735;SDS011;5924;51.398;7.088;2022-07-26T13:14:33;1.23;;;0.50;;
11735;SDS011;5924;51.398;7.088;2022-07-26T13:16:59;1.47;;;0.57;;
11735;SDS011;5924;51.398;7.088;2022-07-26T13:19:26;0.50;;;0.50;;
11735;SDS011;5924;51.398;7.088;2022-07-26T13:21:52;0.60;;;0.53;;
11735;SDS011;5924;51.398;7.088;2022-07-26T13:24:19;0.80;;;0.70;;
11735;SDS011;5924;51.398;7.088;2022-07-26T13:26:44;0.83;;;0.57;;
11735;SDS011;5924;51.398;7.088;2022-07-26T13:29:10;1.27;;;0.70;;
11735;SDS011;5924;51.398;7.088;2022-07-26T13:31:36;1.43;;;0.60;;
11735;SDS011;5924;51.398;7.088;2022-07-26T13:34:02;1.03;;;0.70;;
11735;SDS011;5924;51.398;7.088;2022-07-26T13:36:29;0.90;;;0.70;;
11735;SDS011;5924;51.398;7.088;2022-07-26T13:38:55;0.70;;;0.70;;
11735;SDS011;5924;51.398;7.088;2022-07-26T13:41:21;0.53;;;0.53;;
11735;SDS011;5924;51.398;7.088;2022-07-26T13:43:46;0.63;;;0.63;;
11735;SDS011;5924;51.398;7.088;2022-07-26T13:46:12;4.07;;;1.17;;
11735;SDS011;5924;51.398;7.088;2022-07-26T13:48:38;6.43;;;0.97;;
11735;SDS011;5924;51.398;7.088;2022-07-26T13:51:03;1.00;;;0.63;;
11735;SDS011;5924;51.398;7.088;2022-07-26T13:53:29;2.00;;;0.70;;
11735;SDS011;5924;51.398;7.088;2022-07-26T13:55:55;0.70;;;0.70;;
11735;SDS011;5924;51.398;7.088;2022-07-26T13:58:21;2.90;;;0.60;;
11735;SDS011;5924;51.398;7.088;2022-07-26T14:00:47;0.50;;;0.50;;
11735;SDS011;5924;51.398;7.088;2022-07-26T14:03:13;0.60;;;0.60;;
11735;SDS011;5924;51.398;7.088;2022-07-26T14:05:39;0.50;;;0.50;;
11735;SDS011;5924;51.398;7.088;2022-07-26T14:08:05;0.60;;;0.60;;
11735;SDS011;5924;51.398;7.088;2022-07-26T14:10:31;3.90;;;0.70;;
11735;SDS011;5924;51.398;7.088;2022-07-26T14:13:01;1.03;;;0.70;;
11735;SDS011;5924;51.398;7.088;2022-07-26T14:15:26;0.60;;;0.60;;
11735;SDS011;5924;51.398;7.088;2022-07-26T14:17:52;1.70;;;0.93;;
11735;SDS011;5924;51.398;7.088;2022-07-26T14:20:18;1.17;;;0.70;;
11735;SDS011;5924;51.398;7.088;2022-07-26T14:22:44;0.80;;;0.80;;
11735;SDS011;5924;51.398;7.088;2022-07-26T14:25:10;0.90;;;0.90;;
11735;SDS011;5924;51.398;7.088;2022-07-26T14:27:36;1.57;;;0.70;;
11735;SDS011;5924;51.398;7.088;2022-07-26T14:30:02;1.83;;;0.80;;
11735;SDS011;5924;51.398;7.088;2022-07-26T14:32:28;1.33;;;0.83;;
11735;SDS011;5924;51.398;7.088;2022-07-26T14:34:54;1.60;;;0.80;;
11735;SDS011;5924;51.398;7.088;2022-07-26T14:37:19;1.20;;;1.10;;
11735;SDS011;5924;51.398;7.088;2022-07-26T14:39:48;0.70;;;0.70;;
11735;SDS011;5924;51.398;7.088;2022-07-26T14:42:14;1.30;;;1.20;;
11735;SDS011;5924;51.398;7.088;2022-07-26T14:44:39;1.30;;;1.20;;
11735;SDS011;5924;51.398;7.088;2022-07-26T14:47:05;1.20;;;1.07;;
11735;SDS011;5924;51.398;7.088;2022-07-26T14:49:32;1.23;;;1.00;;
11735;SDS011;5924;51.398;7.088;2022-07-26T14:51:59;3.57;;;0.87;;
11735;SDS011;5924;51.398;7.088;2022-07-26T14:54:25;1.00;;;0.90;;
11735;SDS011;5924;51.398;7.088;2022-07-26T14:56:51;1.97;;;1.33;;
11735;SDS011;5924;51.398;7.088;2022-07-26T14:59:18;1.00;;;1.00;;
11735;SDS011;5924;51.398;7.088;2022-07-26T15:01:43;4.10;;;0.83;;
11735;SDS011;5924;51.398;7.088;2022-07-26T15:04:09;2.20;;;0.90;;
11735;SDS011;5924;51.398;7.088;2022-07-26T15:06:35;1.33;;;1.30;;
11735;SDS011;5924;51.398;7.088;2022-07-26T15:09:01;3.37;;;1.10;;
11735;SDS011;5924;51.398;7.088;2022-07-26T15:11:28;0.70;;;0.60;;
11735;SDS011;5924;51.398;7.088;2022-07-26T15:13:53;0.93;;;0.93;;
11735;SDS011;5924;51.398;7.088;2022-07-26T15:16:19;1.70;;;1.17;;
11735;SDS011;5924;51.398;7.088;2022-07-26T15:18:45;0.93;;;0.83;;
11735;SDS011;5924;51.398;7.088;2022-07-26T15:21:12;1.70;;;1.10;;
11735;SDS011;5924;51.398;7.088;2022-07-26T15:23:38;0.80;;;0.80;;
11735;SDS011;5924;51.398;7.088;2022-07-26T15:26:04;1.57;;;0.80;;
11735;SDS011;5924;51.398;7.088;2022-07-26T15:28:30;1.33;;;1.10;;